Wendy C — WYB6131 — position and weather

sailwx.info

Track history (hours):
 
Tides and Currents Weather Stations Pressure Air Temp Water Temp Dewpoint Dewpoint Depression Visibility Wind Speed Wind Dir Waves Ship Positions

Wendy C

Owner: Harbor Towing & Fleeting, Inc., Metairie, LA. More information available from US FCC via Universal Licensing System and Coast Guard Vessel Documentation Center.

Last reported at 2015-May-25 21:28 UTC. Time now 2015-May-25 21:40 UTC.
Position N 29°56' W 089°58'.

Length 19 m; draft 3 m.

Type: Towing. MMSI: 366160126.

Date/timePositionNaut miles runAvg speedWind from/ knotsBaromVisibWave heightAir tempDewpointWater temp
2015-May-25 21:28N 29°56' W 089°58'0 0.0
2015-May-25 20:33N 29°56' W 089°58'0 0.0
2015-May-25 19:29N 29°56' W 089°58'0 0.0
2015-May-25 18:29N 29°56' W 089°58'0 0.0
2015-May-24 22:17N 29°56' W 089°58'0 0.0
2015-May-24 21:23N 29°56' W 089°58'0 0.0
2015-May-24 20:31N 29°56' W 089°58'0 0.0
2015-May-24 18:20N 29°56' W 089°58'2 2.0
2015-May-24 17:21N 29°57' W 090°01'0 0.2
2015-May-24 16:07N 29°56' W 090°00'0 0.0
2015-May-24 15:32N 29°56' W 090°00'2 1.7
2015-May-24 14:22N 29°58' W 090°02'2 2.1
2015-May-24 13:30N 29°60' W 090°01'0 0.2
2015-May-24 12:28N 29°60' W 090°01'2 2.3
2015-May-24 11:31N 29°58' W 090°02'2 1.5
2015-May-24 10:27N 29°57' W 090°01'2 2.3
2015-May-24 09:26N 29°55' W 089°58'1 1.0
2015-May-24 08:26N 29°55' W 089°59'1 0.6
2015-May-24 07:11N 29°54' W 089°59'1 1.4
2015-May-24 06:09N 29°55' W 089°58'1 0.7
2015-May-24 05:22N 29°55' W 089°59'1 1.3
2015-May-24 04:24N 29°56' W 089°57'0 0.0
2015-May-24 03:30N 29°56' W 089°57'5 4.8
2015-May-24 02:33N 29°58' W 090°02'3 2.8
2015-May-24 01:32N 29°60' W 089°59'3 2.9
2015-May-24 00:30N 29°58' W 090°02'2 2.0
2015-May-23 23:33N 29°56' W 090°00'0 0.0
2015-May-23 22:32N 29°56' W 090°00'1 0.1
2015-May-23 02:13N 29°57' W 090°01'1 1.0
2015-May-23 01:15N 29°56' W 090°00'0 0.2
2015-May-23 00:16N 29°56' W 090°00'0 0.0
2015-May-22 23:32N 29°56' W 090°00'0 0.0
2015-May-22 22:21N 29°56' W 090°00'0 0.0
2015-May-22 21:06N 29°56' W 090°00'0 0.2
2015-May-22 20:32N 29°56' W 090°00'0 0.1
2015-May-22 19:33N 29°56' W 090°00'0 0.0
2015-May-22 18:21N 29°56' W 090°00'2 2.4
2015-May-22 17:31N 29°58' W 090°02'2 2.1
2015-May-22 16:27N 29°60' W 090°00'2 2.2
2015-May-22 15:26N 29°58' W 090°02'1 0.7
2015-May-22 14:32N 29°57' W 090°01'1 1.3
2015-May-22 13:33N 29°56' W 090°00'0 0.1
2015-May-22 12:32N 29°56' W 090°00'0 0.0
2015-May-22 11:31N 29°56' W 090°00'0 0.0
2015-May-22 10:32N 29°56' W 090°00'0 0.0
2015-May-22 09:32N 29°56' W 090°00'0 0.0
2015-May-22 08:32N 29°56' W 090°00'0 0.0
2015-May-22 07:33N 29°56' W 090°00'0 0.5
2015-May-22 06:33N 29°56' W 089°60'2 1.9
2015-May-22 05:32N 29°56' W 089°58'4 4.1
2015-May-22 04:33N 29°58' W 090°02'1 1.2
2015-May-22 03:33N 29°59' W 090°01'2 1.9
2015-May-22 02:31N 29°60' W 089°59'3 3.0
2015-May-22 01:32N 29°58' W 090°02'2 1.9
2015-May-22 00:32N 29°56' W 090°00'0 0.0
2015-May-21 23:33N 29°56' W 090°00'1 0.1
2015-May-21 03:11N 29°57' W 090°01'1 0.4
2015-May-21 01:12N 29°58' W 090°02'0 0.1
2015-May-20 23:13N 29°58' W 090°02'1 0.3
2015-May-20 18:15N 29°57' W 090°01'2 2.4
2015-May-20 17:33N 29°58' W 090°02'0 0.2
2015-May-20 16:31N 29°58' W 090°02'1 1.0
2015-May-20 15:31N 29°58' W 090°02'0 0.2
2015-May-20 14:32N 29°58' W 090°01'4 4.2
2015-May-20 13:30N 30°00' W 089°57'3 3.1
2015-May-20 12:32N 30°01' W 089°54'0 0.1
2015-May-20 11:32N 30°01' W 089°54'6 6.3
2015-May-20 10:32N 29°60' W 090°01'2 2.5
2015-May-20 09:33N 29°57' W 090°02'2 1.5
2015-May-20 08:33N 29°56' W 090°00'0 0.0
2015-May-20 07:29N 29°56' W 090°00'0 0.0
2015-May-20 06:32N 29°56' W 090°00'0 0.0
2015-May-20 05:32N 29°56' W 090°00'0 0.0
2015-May-20 04:27N 29°56' W 090°00'2 2.4
2015-May-20 03:31N 29°58' W 090°02'0 0.4
2015-May-20 02:17N 29°57' W 090°02'1 0.0
2015-May-19 08:32N 29°58' W 090°02'4 4.2
2015-May-19 07:29N 30°00' W 089°57'4 1.0
2015-May-19 03:08N 29°58' W 090°02'1 0.7
2015-May-19 02:15N 29°57' W 090°01'1 1.0
2015-May-19 01:08N 29°57' W 090°00'0 0.5
2015-May-19 00:29N 29°56' W 090°00'0 0.0
2015-May-18 22:33N 29°56' W 090°00'0 0.0
2015-May-18 21:14N 29°56' W 090°00'2 2.0
2015-May-18 20:14N 29°58' W 090°02'2 3.0
2015-May-18 19:32N 29°60' W 090°00'0 0.1
2015-May-18 18:30N 29°60' W 090°00'2 2.4
2015-May-18 17:29N 29°58' W 090°02'2 1.8
2015-May-18 16:33N 29°56' W 090°00'1 0.5
2015-May-18 15:33N 29°57' W 090°01'2 2.0
2015-May-18 14:28N 29°59' W 090°01'2 1.9
2015-May-18 13:27N 29°60' W 089°59'0 0.0
2015-May-18 12:33N 29°60' W 089°59'0 0.0
2015-May-18 11:31N 29°60' W 089°60'3 2.8
2015-May-18 10:32N 29°58' W 090°02'0 0.2
2015-May-18 09:20N 29°58' W 090°02'2 2.2
2015-May-18 08:33N 29°56' W 090°00'0 0.1
2015-May-18 07:31N 29°56' W 090°00'3 2.6
2015-May-18 06:11N 29°60' W 090°00'0 0.0
2015-May-18 05:33N 29°60' W 090°00'2 2.0
2015-May-18 04:29N 29°58' W 090°02'2 0.1
2015-May-17 11:06N 29°56' W 090°00'3 1.3
2015-May-17 08:26N 29°60' W 090°00'2 2.4
2015-May-17 07:29N 29°58' W 090°02'0 0.1
2015-May-17 06:32N 29°58' W 090°02'1 1.1
2015-May-17 05:23N 29°57' W 090°01'1 0.5
2015-May-17 04:09N 29°56' W 090°00'0 0.0
2015-May-17 03:29N 29°56' W 090°00'0 0.1
2015-May-17 02:25N 29°56' W 090°00'3 3.7
2015-May-17 01:30N 29°60' W 090°01'6 6.4
2015-May-17 00:31N 30°01' W 089°54'0 0.0
2015-May-16 23:31N 30°01' W 089°53'3 3.0
2015-May-16 22:26N 30°00' W 089°57'5 4.1
2015-May-16 21:19N 29°58' W 090°02'0 0.2
2015-May-16 20:33N 29°58' W 090°02'0 0.3
2015-May-16 19:25N 29°58' W 090°02'0 0.0
2015-May-16 18:32N 29°58' W 090°02'6 5.4
2015-May-16 17:27N 30°01' W 089°55'2 1.8
2015-May-16 16:30N 30°01' W 089°54'0 0.0
2015-May-16 15:23N 30°01' W 089°54'2 2.7
2015-May-16 14:33N 30°00' W 089°56'5 5.2
2015-May-16 13:33N 29°58' W 090°02'1 0.5
2015-May-16 12:34N 29°58' W 090°02'2 1.5
2015-May-16 11:33N 29°57' W 090°00'0 0.3
2015-May-16 10:33N 29°56' W 090°00'0 0.0
2015-May-16 09:32N 29°56' W 090°00'0 0.0
2015-May-16 08:26N 29°56' W 090°00'0 0.0
2015-May-16 07:32N 29°56' W 090°00'0 0.0
2015-May-16 06:33N 29°56' W 090°00'0 0.0
2015-May-16 05:32N 29°56' W 090°00'0 0.0
2015-May-16 04:06N 29°56' W 090°00'  
Track history (hours):
 
Tides and Currents Weather Stations Pressure Air Temp Water Temp Dewpoint Dewpoint Depression Visibility Wind Speed Wind Dir Waves Ship Positions

Wendy C

Owner: Harbor Towing & Fleeting, Inc., Metairie, LA. More information available from US FCC via Universal Licensing System and Coast Guard Vessel Documentation Center.

Last reported at 2015-May-25 21:28 UTC. Time now 2015-May-25 21:40 UTC.
Position N 29°56' W 089°58'.

Length 19 m; draft 3 m.

Type: Towing. MMSI: 366160126.

Date/timePositionNaut miles runAvg speedWind from/ knotsBaromVisibWave heightAir tempDewpointWater temp
2015-May-25 21:28N 29°56' W 089°58'0 0.0
2015-May-25 20:33N 29°56' W 089°58'0 0.0
2015-May-25 19:29N 29°56' W 089°58'0 0.0
2015-May-25 18:29N 29°56' W 089°58'0 0.0
2015-May-24 22:17N 29°56' W 089°58'0 0.0
2015-May-24 21:23N 29°56' W 089°58'0 0.0
2015-May-24 20:31N 29°56' W 089°58'0 0.0
2015-May-24 18:20N 29°56' W 089°58'2 2.0
2015-May-24 17:21N 29°57' W 090°01'0 0.2
2015-May-24 16:07N 29°56' W 090°00'0 0.0
2015-May-24 15:32N 29°56' W 090°00'2 1.7
2015-May-24 14:22N 29°58' W 090°02'2 2.1
2015-May-24 13:30N 29°60' W 090°01'0 0.2
2015-May-24 12:28N 29°60' W 090°01'2 2.3
2015-May-24 11:31N 29°58' W 090°02'2 1.5
2015-May-24 10:27N 29°57' W 090°01'2 2.3
2015-May-24 09:26N 29°55' W 089°58'1 1.0
2015-May-24 08:26N 29°55' W 089°59'1 0.6
2015-May-24 07:11N 29°54' W 089°59'1 1.4
2015-May-24 06:09N 29°55' W 089°58'1 0.7
2015-May-24 05:22N 29°55' W 089°59'1 1.3
2015-May-24 04:24N 29°56' W 089°57'0 0.0
2015-May-24 03:30N 29°56' W 089°57'5 4.8
2015-May-24 02:33N 29°58' W 090°02'3 2.8
2015-May-24 01:32N 29°60' W 089°59'3 2.9
2015-May-24 00:30N 29°58' W 090°02'2 2.0
2015-May-23 23:33N 29°56' W 090°00'0 0.0
2015-May-23 22:32N 29°56' W 090°00'1 0.1
2015-May-23 02:13N 29°57' W 090°01'1 1.0
2015-May-23 01:15N 29°56' W 090°00'0 0.2
2015-May-23 00:16N 29°56' W 090°00'0 0.0
2015-May-22 23:32N 29°56' W 090°00'0 0.0
2015-May-22 22:21N 29°56' W 090°00'0 0.0
2015-May-22 21:06N 29°56' W 090°00'0 0.2
2015-May-22 20:32N 29°56' W 090°00'0 0.1
2015-May-22 19:33N 29°56' W 090°00'0 0.0
2015-May-22 18:21N 29°56' W 090°00'2 2.4
2015-May-22 17:31N 29°58' W 090°02'2 2.1
2015-May-22 16:27N 29°60' W 090°00'2 2.2
2015-May-22 15:26N 29°58' W 090°02'1 0.7
2015-May-22 14:32N 29°57' W 090°01'1 1.3
2015-May-22 13:33N 29°56' W 090°00'0 0.1
2015-May-22 12:32N 29°56' W 090°00'0 0.0
2015-May-22 11:31N 29°56' W 090°00'0 0.0
2015-May-22 10:32N 29°56' W 090°00'0 0.0
2015-May-22 09:32N 29°56' W 090°00'0 0.0
2015-May-22 08:32N 29°56' W 090°00'0 0.0
2015-May-22 07:33N 29°56' W 090°00'0 0.5
2015-May-22 06:33N 29°56' W 089°60'2 1.9
2015-May-22 05:32N 29°56' W 089°58'4 4.1
2015-May-22 04:33N 29°58' W 090°02'1 1.2
2015-May-22 03:33N 29°59' W 090°01'2 1.9
2015-May-22 02:31N 29°60' W 089°59'3 3.0
2015-May-22 01:32N 29°58' W 090°02'2 1.9
2015-May-22 00:32N 29°56' W 090°00'0 0.0
2015-May-21 23:33N 29°56' W 090°00'1 0.1
2015-May-21 03:11N 29°57' W 090°01'1 0.4
2015-May-21 01:12N 29°58' W 090°02'0 0.1
2015-May-20 23:13N 29°58' W 090°02'1 0.3
2015-May-20 18:15N 29°57' W 090°01'2 2.4
2015-May-20 17:33N 29°58' W 090°02'0 0.2
2015-May-20 16:31N 29°58' W 090°02'1 1.0
2015-May-20 15:31N 29°58' W 090°02'0 0.2
2015-May-20 14:32N 29°58' W 090°01'4 4.2
2015-May-20 13:30N 30°00' W 089°57'3 3.1
2015-May-20 12:32N 30°01' W 089°54'0 0.1
2015-May-20 11:32N 30°01' W 089°54'6 6.3
2015-May-20 10:32N 29°60' W 090°01'2 2.5
2015-May-20 09:33N 29°57' W 090°02'2 1.5
2015-May-20 08:33N 29°56' W 090°00'0 0.0
2015-May-20 07:29N 29°56' W 090°00'0 0.0
2015-May-20 06:32N 29°56' W 090°00'0 0.0
2015-May-20 05:32N 29°56' W 090°00'0 0.0
2015-May-20 04:27N 29°56' W 090°00'2 2.4
2015-May-20 03:31N 29°58' W 090°02'0 0.4
2015-May-20 02:17N 29°57' W 090°02'1 0.0
2015-May-19 08:32N 29°58' W 090°02'4 4.2
2015-May-19 07:29N 30°00' W 089°57'4 1.0
2015-May-19 03:08N 29°58' W 090°02'1 0.7
2015-May-19 02:15N 29°57' W 090°01'1 1.0
2015-May-19 01:08N 29°57' W 090°00'0 0.5
2015-May-19 00:29N 29°56' W 090°00'0 0.0
2015-May-18 22:33N 29°56' W 090°00'0 0.0
2015-May-18 21:14N 29°56' W 090°00'2 2.0
2015-May-18 20:14N 29°58' W 090°02'2 3.0
2015-May-18 19:32N 29°60' W 090°00'0 0.1
2015-May-18 18:30N 29°60' W 090°00'2 2.4
2015-May-18 17:29N 29°58' W 090°02'2 1.8
2015-May-18 16:33N 29°56' W 090°00'1 0.5
2015-May-18 15:33N 29°57' W 090°01'2 2.0
2015-May-18 14:28N 29°59' W 090°01'2 1.9
2015-May-18 13:27N 29°60' W 089°59'0 0.0
2015-May-18 12:33N 29°60' W 089°59'0 0.0
2015-May-18 11:31N 29°60' W 089°60'3 2.8
2015-May-18 10:32N 29°58' W 090°02'0 0.2
2015-May-18 09:20N 29°58' W 090°02'2 2.2
2015-May-18 08:33N 29°56' W 090°00'0 0.1
2015-May-18 07:31N 29°56' W 090°00'3 2.6
2015-May-18 06:11N 29°60' W 090°00'0 0.0
2015-May-18 05:33N 29°60' W 090°00'2 2.0
2015-May-18 04:29N 29°58' W 090°02'2 0.1
2015-May-17 11:06N 29°56' W 090°00'3 1.3
2015-May-17 08:26N 29°60' W 090°00'2 2.4
2015-May-17 07:29N 29°58' W 090°02'0 0.1
2015-May-17 06:32N 29°58' W 090°02'1 1.1
2015-May-17 05:23N 29°57' W 090°01'1 0.5
2015-May-17 04:09N 29°56' W 090°00'0 0.0
2015-May-17 03:29N 29°56' W 090°00'0 0.1
2015-May-17 02:25N 29°56' W 090°00'3 3.7
2015-May-17 01:30N 29°60' W 090°01'6 6.4
2015-May-17 00:31N 30°01' W 089°54'0 0.0
2015-May-16 23:31N 30°01' W 089°53'3 3.0
2015-May-16 22:26N 30°00' W 089°57'5 4.1
2015-May-16 21:19N 29°58' W 090°02'0 0.2
2015-May-16 20:33N 29°58' W 090°02'0 0.3
2015-May-16 19:25N 29°58' W 090°02'0 0.0
2015-May-16 18:32N 29°58' W 090°02'6 5.4
2015-May-16 17:27N 30°01' W 089°55'2 1.8
2015-May-16 16:30N 30°01' W 089°54'0 0.0
2015-May-16 15:23N 30°01' W 089°54'2 2.7
2015-May-16 14:33N 30°00' W 089°56'5 5.2
2015-May-16 13:33N 29°58' W 090°02'1 0.5
2015-May-16 12:34N 29°58' W 090°02'2 1.5
2015-May-16 11:33N 29°57' W 090°00'0 0.3
2015-May-16 10:33N 29°56' W 090°00'0 0.0
2015-May-16 09:32N 29°56' W 090°00'0 0.0
2015-May-16 08:26N 29°56' W 090°00'0 0.0
2015-May-16 07:32N 29°56' W 090°00'0 0.0
2015-May-16 06:33N 29°56' W 090°00'0 0.0
2015-May-16 05:32N 29°56' W 090°00'0 0.0
2015-May-16 04:06N 29°56' W 090°00'  

Dump ship's entire track history